createdAt,value
2023-04-23T00:00:36.161Z,3.50
2023-04-23T00:03:09.634Z,3.50
2023-04-23T00:05:37.384Z,3.70
2023-04-23T00:08:05.146Z,4.10
2023-04-23T00:10:32.488Z,3.80
2023-04-23T00:12:59.880Z,3.40
2023-04-23T00:15:27.066Z,3.40
2023-04-23T00:17:53.742Z,3.90
2023-04-23T00:20:21.238Z,4.10
2023-04-23T00:22:48.380Z,3.60
2023-04-23T00:25:15.097Z,4.20
2023-04-23T00:27:42.539Z,4.40
2023-04-23T00:30:09.714Z,4.10
2023-04-23T00:32:36.770Z,4.30
2023-04-23T00:35:03.916Z,4.40
2023-04-23T00:37:30.677Z,3.80
2023-04-23T00:39:57.336Z,4.20
2023-04-23T00:42:24.621Z,4.90
2023-04-23T00:44:51.861Z,4.70
2023-04-23T00:47:19.995Z,4.80
2023-04-23T00:49:46.834Z,5.10
2023-04-23T00:52:13.675Z,5.40
2023-04-23T00:54:40.747Z,5.80
2023-04-23T00:57:08.078Z,5.70
2023-04-23T00:59:35.734Z,5.60
2023-04-23T01:02:03.321Z,5.50
2023-04-23T01:04:30.731Z,4.70
2023-04-23T01:06:57.644Z,5.60
2023-04-23T01:09:27.087Z,5.70
2023-04-23T01:11:54.396Z,6.00
2023-04-23T01:14:21.144Z,6.00
2023-04-23T01:16:48.886Z,5.90
2023-04-23T01:19:15.809Z,6.10
2023-04-23T01:21:42.833Z,6.30
2023-04-23T01:24:09.974Z,6.00
2023-04-23T01:26:36.978Z,6.70
2023-04-23T01:29:03.708Z,6.50
2023-04-23T01:31:31.867Z,6.80
2023-04-23T01:33:58.718Z,6.60
2023-04-23T01:36:26.531Z,6.40
2023-04-23T01:38:53.948Z,6.50
2023-04-23T01:41:20.659Z,6.30
2023-04-23T01:43:47.368Z,6.30
2023-04-23T01:46:14.273Z,5.60
2023-04-23T01:48:41.128Z,5.90
2023-04-23T01:51:08.752Z,5.60
2023-04-23T01:53:35.417Z,6.30
2023-04-23T01:56:02.203Z,5.80
2023-04-23T01:58:29.287Z,6.40
2023-04-23T02:00:56.094Z,6.50
2023-04-23T02:03:23.011Z,5.80
2023-04-23T02:05:49.935Z,6.20
2023-04-23T02:08:16.936Z,5.70
2023-04-23T02:10:43.734Z,6.00
2023-04-23T02:13:10.566Z,6.60
2023-04-23T02:15:38.220Z,6.00
2023-04-23T02:18:06.241Z,5.80
2023-04-23T02:20:33.008Z,5.50
2023-04-23T02:22:59.716Z,6.60
2023-04-23T02:25:26.509Z,5.90
2023-04-23T02:27:53.276Z,6.50
2023-04-23T02:30:20.192Z,6.50
2023-04-23T02:32:47.105Z,6.60
2023-04-23T02:35:13.875Z,6.90
2023-04-23T02:37:40.981Z,6.80
2023-04-23T02:40:08.719Z,7.20
2023-04-23T02:42:35.459Z,7.20
2023-04-23T02:45:02.664Z,7.00
2023-04-23T02:47:30.673Z,7.40
2023-04-23T02:49:57.677Z,7.50
2023-04-23T02:52:24.597Z,7.10
2023-04-23T02:54:51.300Z,7.20
2023-04-23T02:57:18.607Z,8.30
2023-04-23T02:59:45.776Z,7.10
2023-04-23T03:02:12.697Z,7.60
2023-04-23T03:04:40.023Z,7.50
2023-04-23T03:07:07.051Z,7.70
2023-04-23T03:09:34.704Z,6.90
2023-04-23T03:12:01.824Z,6.90
2023-04-23T03:14:29.675Z,7.80
2023-04-23T03:16:56.696Z,6.90
2023-04-23T03:19:23.604Z,8.40
2023-04-23T03:21:50.486Z,7.70
2023-04-23T03:24:17.274Z,7.60
2023-04-23T03:26:44.465Z,7.70
2023-04-23T03:29:11.222Z,8.70
2023-04-23T03:31:38.793Z,7.80
2023-04-23T03:34:07.599Z,6.70
2023-04-23T03:36:35.623Z,7.70
2023-04-23T03:39:03.113Z,7.50
2023-04-23T03:41:37.412Z,7.00
2023-04-23T03:44:04.214Z,6.90
2023-04-23T03:46:51.599Z,7.10
2023-04-23T03:49:18.358Z,7.30
2023-04-23T03:51:45.505Z,7.60
2023-04-23T03:54:12.275Z,6.80
2023-04-23T03:56:49.329Z,7.90
2023-04-23T03:59:23.260Z,8.10
2023-04-23T04:01:51.345Z,7.50
2023-04-23T04:04:19.352Z,7.80
2023-04-23T04:06:46.885Z,6.80
2023-04-23T04:09:13.716Z,7.80
2023-04-23T04:11:40.740Z,8.00
2023-04-23T04:14:09.332Z,7.70
2023-04-23T04:16:36.138Z,7.00
2023-04-23T04:20:39.653Z,7.10
2023-04-23T04:23:08.069Z,7.80
2023-04-23T04:25:40.150Z,6.80
2023-04-23T04:28:09.571Z,7.50
2023-04-23T04:30:39.538Z,7.20
2023-04-23T04:33:09.074Z,7.60
2023-04-23T04:35:37.297Z,6.80
2023-04-23T04:38:05.686Z,7.30
2023-04-23T04:40:34.626Z,6.60
2023-04-23T04:43:05.462Z,5.70
2023-04-23T04:45:33.877Z,5.20
2023-04-23T04:48:02.076Z,4.80
2023-04-23T04:50:30.479Z,4.70
2023-04-23T04:52:58.802Z,4.40
2023-04-23T04:55:27.384Z,4.70
2023-04-23T04:57:56.040Z,4.60
2023-04-23T05:00:25.692Z,4.50
2023-04-23T05:02:53.955Z,4.10
2023-04-23T05:05:23.027Z,4.30
2023-04-23T05:07:51.670Z,4.60
2023-04-23T05:10:20.762Z,4.60
2023-04-23T05:12:49.265Z,4.60
2023-04-23T05:15:17.475Z,4.30
2023-04-23T05:17:45.609Z,5.50
2023-04-23T05:20:14.454Z,4.50
2023-04-23T05:22:43.055Z,5.30
2023-04-23T05:25:14.365Z,5.50
2023-04-23T05:27:42.731Z,5.70
2023-04-23T05:30:11.327Z,5.20
2023-04-23T05:32:40.060Z,5.40
2023-04-23T05:35:08.624Z,5.80
2023-04-23T05:37:37.814Z,5.80
2023-04-23T05:40:07.384Z,5.50
2023-04-23T05:42:36.097Z,5.70
2023-04-23T05:45:07.250Z,5.10
2023-04-23T05:47:37.416Z,4.90
2023-04-23T05:50:06.899Z,4.90
2023-04-23T05:52:37.498Z,4.60
2023-04-23T05:55:08.262Z,4.90
2023-04-23T05:57:37.603Z,4.80
2023-04-23T06:00:09.763Z,5.40
2023-04-23T06:02:41.399Z,4.60
2023-04-23T06:05:10.392Z,3.80
2023-04-23T06:07:39.045Z,4.60
2023-04-23T06:10:08.369Z,4.10
2023-04-23T06:12:39.395Z,4.80
2023-04-23T06:15:08.928Z,4.80
2023-04-23T06:17:38.399Z,5.10
2023-04-23T06:20:07.732Z,5.00
2023-04-23T06:22:36.398Z,5.00
2023-04-23T06:25:05.664Z,5.00
2023-04-23T06:27:34.125Z,5.40
2023-04-23T06:30:07.529Z,4.90
2023-04-23T06:32:37.361Z,4.90
2023-04-23T06:35:07.650Z,5.20
2023-04-23T06:37:37.721Z,5.30
2023-04-23T06:40:06.909Z,5.30
2023-04-23T06:42:35.008Z,5.70
2023-04-23T06:45:18.310Z,5.30
2023-04-23T06:47:46.691Z,5.10
2023-04-23T06:50:14.927Z,4.70
2023-04-23T06:52:43.213Z,5.30
2023-04-23T06:55:11.459Z,4.50
2023-04-23T06:57:43.561Z,5.00
2023-04-23T07:00:12.849Z,4.40
2023-04-23T07:02:43.106Z,5.30
2023-04-23T07:05:11.475Z,5.00
2023-04-23T07:07:40.848Z,4.80
2023-04-23T07:10:10.823Z,4.90
2023-04-23T07:12:39.054Z,5.10
2023-04-23T07:15:07.721Z,5.00
2023-04-23T07:17:36.485Z,5.60
2023-04-23T07:20:06.694Z,5.50
2023-04-23T07:22:35.088Z,6.20
2023-04-23T07:25:05.369Z,5.30
2023-04-23T07:27:34.568Z,6.00
2023-04-23T07:30:02.667Z,5.90
2023-04-23T07:32:31.761Z,6.00
2023-04-23T07:35:00.035Z,5.50
2023-04-23T07:37:28.263Z,5.60
2023-04-23T07:39:56.762Z,5.40
2023-04-23T07:42:24.782Z,5.40
2023-04-23T07:44:52.885Z,5.40
2023-04-23T07:47:21.452Z,5.20
2023-04-23T07:49:49.897Z,5.20
2023-04-23T07:52:18.826Z,5.00
2023-04-23T07:54:46.860Z,5.70
2023-04-23T07:57:15.066Z,5.80
2023-04-23T07:59:47.712Z,6.00
2023-04-23T08:02:23.951Z,5.90
2023-04-23T08:04:53.225Z,5.90
2023-04-23T08:07:21.755Z,5.60
2023-04-23T08:09:49.940Z,6.30
2023-04-23T08:12:19.295Z,5.30
2023-04-23T08:14:47.558Z,5.50
2023-04-23T08:17:15.940Z,5.90
2023-04-23T08:19:44.203Z,5.90
2023-04-23T08:22:13.414Z,5.00
2023-04-23T08:24:41.891Z,5.00
2023-04-23T08:27:10.912Z,5.50
2023-04-23T08:29:39.315Z,5.60
2023-04-23T08:32:07.687Z,5.00
2023-04-23T08:34:36.134Z,5.00
2023-04-23T08:37:05.027Z,4.60
2023-04-23T08:39:34.780Z,4.20
2023-04-23T08:42:08.990Z,4.30
2023-04-23T08:44:38.494Z,4.60
2023-04-23T08:47:13.051Z,3.90
2023-04-23T08:49:42.394Z,3.50
2023-04-23T08:52:17.072Z,3.70
2023-04-23T08:54:46.749Z,3.40
2023-04-23T08:57:16.662Z,3.80
2023-04-23T08:59:46.205Z,3.40
2023-04-23T09:02:16.087Z,3.50
2023-04-23T09:04:45.448Z,2.90
2023-04-23T09:07:13.666Z,3.60
2023-04-23T09:09:42.955Z,3.30
2023-04-23T09:12:11.689Z,3.40
2023-04-23T09:14:40.043Z,3.20
2023-04-23T09:17:08.191Z,3.10
2023-04-23T09:19:37.292Z,3.40
2023-04-23T09:22:05.571Z,3.00
2023-04-23T09:24:33.882Z,3.20
2023-04-23T09:27:02.907Z,2.90
2023-04-23T09:29:31.167Z,3.30
2023-04-23T09:32:09.483Z,3.20
2023-04-23T09:34:37.856Z,3.50
2023-04-23T09:37:07.983Z,3.60
2023-04-23T09:39:36.286Z,3.70
2023-04-23T09:42:05.413Z,3.20
2023-04-23T09:44:34.266Z,3.30
2023-04-23T09:47:09.914Z,3.20
2023-04-23T09:49:50.587Z,3.80
2023-04-23T09:52:19.332Z,3.70
2023-04-23T09:54:47.459Z,3.20
2023-04-23T09:57:15.965Z,3.50
2023-04-23T09:59:47.781Z,3.40
2023-04-23T10:02:20.041Z,3.30
2023-04-23T10:04:52.334Z,3.60
2023-04-23T10:07:23.158Z,3.10
2023-04-23T10:09:51.289Z,3.60
2023-04-23T10:14:53.875Z,3.40
2023-04-23T10:17:22.096Z,3.20
2023-04-23T10:19:50.268Z,3.30
2023-04-23T10:22:19.958Z,3.20
2023-04-23T10:24:52.444Z,3.30
2023-04-23T10:29:52.288Z,3.40
2023-04-23T10:32:20.969Z,3.30
2023-04-23T10:34:49.623Z,3.40
2023-04-23T10:37:19.626Z,2.90
2023-04-23T10:39:55.889Z,3.30
2023-04-23T10:42:24.026Z,3.10
2023-04-23T10:44:59.495Z,3.50
2023-04-23T10:47:33.133Z,3.20
2023-04-23T10:50:22.574Z,3.40
2023-04-23T10:52:54.483Z,3.10
2023-04-23T10:55:27.456Z,2.90
2023-04-23T11:00:46.599Z,3.20
2023-04-23T11:03:30.630Z,3.60
2023-04-23T11:06:03.268Z,3.30
2023-04-23T11:08:34.757Z,3.10
2023-04-23T11:11:07.027Z,3.20
2023-04-23T11:13:35.077Z,2.90
2023-04-23T11:16:22.129Z,3.00
2023-04-23T11:19:05.390Z,3.10
2023-04-23T11:22:06.269Z,3.50
2023-04-23T11:24:37.473Z,3.50
2023-04-23T11:27:07.061Z,3.00
2023-04-23T11:29:36.150Z,3.30
2023-04-23T11:32:05.657Z,3.10
2023-04-23T11:34:36.487Z,3.50
2023-04-23T11:37:05.188Z,3.40
2023-04-23T11:39:33.254Z,3.20
2023-04-23T11:42:03.368Z,3.30
2023-04-23T11:44:32.243Z,2.80
2023-04-23T11:47:02.712Z,3.00
2023-04-23T11:49:31.205Z,3.30
2023-04-23T11:52:01.896Z,2.90
2023-04-23T11:54:30.308Z,3.20
2023-04-23T11:57:00.082Z,3.20
2023-04-23T11:59:28.706Z,3.80
2023-04-23T12:01:58.794Z,3.00
2023-04-23T12:04:31.437Z,3.40
2023-04-23T12:06:59.832Z,3.80
2023-04-23T12:09:28.757Z,3.30
2023-04-23T12:11:58.423Z,3.30
2023-04-23T12:14:29.185Z,3.20
2023-04-23T12:16:58.488Z,3.20
2023-04-23T12:19:28.779Z,3.40
2023-04-23T12:22:00.829Z,3.40
2023-04-23T12:24:30.754Z,3.40
2023-04-23T12:27:01.128Z,3.90
2023-04-23T12:29:30.352Z,3.80
2023-04-23T12:31:59.670Z,4.00
2023-04-23T12:34:27.747Z,3.60
2023-04-23T12:36:56.466Z,3.30
2023-04-23T12:39:34.131Z,3.40
2023-04-23T12:42:05.499Z,3.80
2023-04-23T12:44:37.911Z,3.10
2023-04-23T12:47:08.177Z,3.10
2023-04-23T12:49:38.141Z,3.50
2023-04-23T12:52:06.753Z,3.30
2023-04-23T12:54:39.289Z,3.50
2023-04-23T12:59:35.983Z,3.30
2023-04-23T13:02:04.863Z,3.20
2023-04-23T13:04:35.413Z,3.40
2023-04-23T13:07:03.761Z,3.00
2023-04-23T13:09:31.875Z,3.10
2023-04-23T13:12:00.781Z,3.10
2023-04-23T13:14:29.252Z,2.70
2023-04-23T13:17:00.295Z,2.90
2023-04-23T13:19:28.535Z,4.10
2023-04-23T13:21:56.709Z,3.80
2023-04-23T13:24:24.892Z,2.80
2023-04-23T13:26:52.959Z,2.90
2023-04-23T13:29:20.938Z,3.30
2023-04-23T13:31:49.199Z,3.50
2023-04-23T13:34:17.417Z,3.20
2023-04-23T13:36:45.651Z,3.00
2023-04-23T13:39:14.421Z,3.40
2023-04-23T13:41:42.922Z,3.70
2023-04-23T13:44:11.102Z,3.80
2023-04-23T13:46:40.280Z,3.10
2023-04-23T13:49:08.584Z,2.70
2023-04-23T13:51:36.872Z,3.10
2023-04-23T13:54:05.365Z,3.60
2023-04-23T13:56:33.739Z,3.40
2023-04-23T13:59:18.922Z,3.10
2023-04-23T14:01:50.197Z,3.40
2023-04-23T14:04:18.947Z,3.20
2023-04-23T14:06:47.240Z,2.80
2023-04-23T14:09:15.414Z,2.90
2023-04-23T14:11:43.506Z,3.30
2023-04-23T14:14:11.634Z,3.20
2023-04-23T14:16:39.910Z,3.20
2023-04-23T14:19:09.061Z,3.20
2023-04-23T14:21:38.039Z,3.30
2023-04-23T14:24:11.738Z,3.50
2023-04-23T14:26:49.517Z,3.20
2023-04-23T14:29:22.830Z,3.30
2023-04-23T14:31:51.451Z,2.80
2023-04-23T14:34:19.584Z,3.60
2023-04-23T14:36:50.848Z,3.20
2023-04-23T14:39:17.767Z,3.50
2023-04-23T14:41:45.463Z,3.30
2023-04-23T14:44:12.624Z,3.10
2023-04-23T14:46:39.469Z,3.10
2023-04-23T14:49:06.678Z,2.90
2023-04-23T14:51:33.650Z,3.00
2023-04-23T14:54:00.788Z,3.10
2023-04-23T14:56:27.690Z,3.50
2023-04-23T14:58:54.604Z,2.90
2023-04-23T15:01:21.775Z,3.30
2023-04-23T15:04:12.443Z,3.30
2023-04-23T15:06:40.728Z,3.20
2023-04-23T15:09:07.603Z,3.50
2023-04-23T15:11:34.590Z,2.80
2023-04-23T15:14:01.577Z,3.00
2023-04-23T15:16:47.495Z,4.10
2023-04-23T15:19:18.283Z,3.10
2023-04-23T15:21:46.357Z,3.00
2023-04-23T15:24:13.402Z,3.10
2023-04-23T15:26:40.465Z,3.50
2023-04-23T15:29:10.664Z,4.70
2023-04-23T15:31:38.429Z,3.70
2023-04-23T15:34:09.311Z,3.70
2023-04-23T15:36:37.860Z,3.40
2023-04-23T15:39:06.522Z,3.40
2023-04-23T15:41:33.533Z,3.30
2023-04-23T15:44:01.229Z,3.40
2023-04-23T15:46:28.253Z,3.10
2023-04-23T15:48:55.373Z,2.90
2023-04-23T15:51:25.293Z,3.50
2023-04-23T15:53:52.289Z,3.00
2023-04-23T15:56:19.209Z,3.00
2023-04-23T15:58:46.145Z,2.70
2023-04-23T16:01:13.272Z,3.40
2023-04-23T16:03:42.506Z,3.10
2023-04-23T16:06:12.679Z,2.80
2023-04-23T16:08:39.816Z,2.80
2023-04-23T16:11:08.955Z,3.20
2023-04-23T16:13:36.244Z,3.50
2023-04-23T16:16:03.145Z,3.00
2023-04-23T16:18:32.432Z,2.90
2023-04-23T16:21:01.686Z,3.00
2023-04-23T16:23:28.910Z,2.90
2023-04-23T16:26:00.353Z,3.10
2023-04-23T16:28:27.361Z,3.20
2023-04-23T16:30:54.270Z,3.30
2023-04-23T16:33:21.260Z,3.00
2023-04-23T16:38:26.131Z,3.60
2023-04-23T16:40:53.189Z,3.20
2023-04-23T16:43:20.253Z,3.60
2023-04-23T16:45:48.033Z,3.80
2023-04-23T16:48:16.742Z,4.40
2023-04-23T16:50:44.487Z,4.10
2023-04-23T16:53:11.607Z,5.80
2023-04-23T16:55:39.021Z,5.30
2023-04-23T16:58:06.668Z,8.10
2023-04-23T17:00:33.998Z,8.60
2023-04-23T17:03:01.687Z,7.90
2023-04-23T17:05:31.321Z,7.60
2023-04-23T17:07:59.664Z,6.60
2023-04-23T17:10:26.579Z,6.70
2023-04-23T17:12:55.560Z,6.10
2023-04-23T17:15:23.585Z,6.80
2023-04-23T17:17:51.611Z,8.00
2023-04-23T17:20:19.095Z,8.20
2023-04-23T17:22:46.411Z,7.60
2023-04-23T17:25:14.026Z,7.20
2023-04-23T17:27:42.243Z,8.00
2023-04-23T17:30:09.903Z,6.20
2023-04-23T17:32:37.835Z,5.70
2023-04-23T17:35:10.555Z,5.40
2023-04-23T17:37:39.347Z,6.10
2023-04-23T17:40:07.286Z,6.70
2023-04-23T17:42:34.658Z,6.60
2023-04-23T17:45:01.613Z,6.70
2023-04-23T17:47:29.179Z,5.90
2023-04-23T17:49:56.164Z,5.40
2023-04-23T17:52:23.145Z,5.20
2023-04-23T17:54:50.068Z,5.50
2023-04-23T17:57:16.969Z,5.90
2023-04-23T17:59:44.048Z,6.50
2023-04-23T18:02:11.662Z,6.10
2023-04-23T18:04:38.907Z,5.90
2023-04-23T18:07:06.254Z,5.60
2023-04-23T18:09:33.292Z,5.40
2023-04-23T18:12:00.349Z,5.20
2023-04-23T18:14:27.795Z,5.60
2023-04-23T18:16:54.788Z,5.50
2023-04-23T18:19:21.798Z,6.30
2023-04-23T18:21:49.970Z,5.70
2023-04-23T18:24:18.747Z,6.30
2023-04-23T18:26:46.270Z,6.20
2023-04-23T18:29:13.588Z,6.80
2023-04-23T18:31:40.595Z,7.60
2023-04-23T18:34:10.011Z,7.70
2023-04-23T18:36:38.094Z,7.20
2023-04-23T18:39:05.900Z,7.50
2023-04-23T18:41:32.907Z,7.10
2023-04-23T18:44:00.426Z,7.20
2023-04-23T18:46:28.921Z,7.30
2023-04-23T18:49:18.280Z,6.90
2023-04-23T18:51:45.801Z,6.30
2023-04-23T18:54:17.641Z,5.40
2023-04-23T18:56:47.535Z,7.00
2023-04-23T18:59:14.562Z,7.50
2023-04-23T19:01:55.815Z,7.60
2023-04-23T19:04:36.589Z,6.60
2023-04-23T19:07:10.608Z,6.40
2023-04-23T19:09:43.676Z,7.20
2023-04-23T19:12:13.129Z,6.50
2023-04-23T19:14:49.645Z,6.80
2023-04-23T19:17:33.332Z,6.20
2023-04-23T19:20:05.673Z,6.40
2023-04-23T19:22:42.203Z,6.20
2023-04-23T19:25:11.228Z,7.00
2023-04-23T19:27:42.122Z,6.30
2023-04-23T19:30:23.262Z,6.30
2023-04-23T19:32:54.060Z,6.80
2023-04-23T19:35:22.086Z,6.60
2023-04-23T19:37:48.976Z,6.80
2023-04-23T19:40:16.449Z,6.00
2023-04-23T19:42:43.427Z,6.20
2023-04-23T19:45:10.860Z,6.30
2023-04-23T19:47:40.265Z,6.10
2023-04-23T19:50:07.920Z,6.20
2023-04-23T19:52:35.066Z,6.30
2023-04-23T19:55:02.524Z,6.40
2023-04-23T19:57:29.456Z,7.30
2023-04-23T19:59:56.397Z,7.40
2023-04-23T20:02:23.777Z,6.80
2023-04-23T20:04:50.799Z,7.00
2023-04-23T20:07:17.903Z,6.20
2023-04-23T20:09:45.149Z,6.80
2023-04-23T20:12:13.684Z,6.40
2023-04-23T20:14:40.980Z,6.50
2023-04-23T20:17:07.954Z,6.70
2023-04-23T20:19:34.865Z,5.80
2023-04-23T20:22:02.609Z,7.40
2023-04-23T20:24:29.631Z,7.60
2023-04-23T20:26:56.728Z,7.40
2023-04-23T20:29:23.583Z,7.70
2023-04-23T20:31:50.631Z,7.80
2023-04-23T20:34:17.488Z,6.80
2023-04-23T20:36:47.393Z,6.50
2023-04-23T20:39:14.778Z,5.70
2023-04-23T20:41:42.346Z,5.60
2023-04-23T20:44:10.061Z,4.90
2023-04-23T20:46:37.108Z,5.10
2023-04-23T20:49:04.412Z,4.80
2023-04-23T20:51:34.485Z,5.20
2023-04-23T20:54:02.147Z,5.50
2023-04-23T20:56:29.448Z,4.90
2023-04-23T20:58:57.830Z,4.80
2023-04-23T21:01:25.426Z,5.10
2023-04-23T21:03:53.979Z,5.10
2023-04-23T21:06:21.418Z,6.30
2023-04-23T21:08:48.366Z,6.90
2023-04-23T21:11:17.609Z,8.00
2023-04-23T21:13:48.073Z,8.20
2023-04-23T21:16:15.291Z,7.50
2023-04-23T21:18:43.893Z,8.20
2023-04-23T21:21:11.011Z,7.30
2023-04-23T21:23:39.327Z,6.90
2023-04-23T21:26:07.725Z,7.90
2023-04-23T21:28:34.831Z,7.60
2023-04-23T21:31:07.947Z,5.60
2023-04-23T21:33:34.934Z,7.30
2023-04-23T21:36:02.056Z,7.40
2023-04-23T21:38:30.959Z,5.90
2023-04-23T21:40:58.599Z,7.10
2023-04-23T21:43:25.979Z,5.70
2023-04-23T21:45:52.940Z,4.90
2023-04-23T21:48:19.936Z,5.10
2023-04-23T21:50:48.273Z,5.00
2023-04-23T21:53:15.217Z,5.10
2023-04-23T21:55:42.229Z,4.70
2023-04-23T21:58:17.047Z,5.00
2023-04-23T22:00:45.590Z,4.80
2023-04-23T22:03:15.909Z,4.60
2023-04-23T22:05:52.331Z,5.70
2023-04-23T22:08:19.599Z,5.00
2023-04-23T22:10:46.566Z,5.80
2023-04-23T22:13:14.415Z,5.30
2023-04-23T22:15:41.467Z,5.90
2023-04-23T22:18:08.788Z,4.90
2023-04-23T22:20:37.678Z,5.30
2023-04-23T22:23:04.659Z,4.60
2023-04-23T22:25:31.632Z,4.40
2023-04-23T22:27:58.729Z,4.60
2023-04-23T22:30:25.755Z,5.00
2023-04-23T22:32:52.711Z,4.80
2023-04-23T22:35:19.731Z,4.60
2023-04-23T22:37:46.620Z,5.00
2023-04-23T22:40:13.503Z,5.00
2023-04-23T22:42:40.441Z,4.50
2023-04-23T22:45:08.484Z,4.20
2023-04-23T22:47:35.535Z,4.60
2023-04-23T22:50:02.476Z,4.30
2023-04-23T22:52:29.396Z,5.40
2023-04-23T22:54:57.044Z,8.10
2023-04-23T22:57:24.245Z,7.50
2023-04-23T22:59:51.128Z,7.20
2023-04-23T23:02:18.072Z,7.10
2023-04-23T23:04:44.993Z,7.70
2023-04-23T23:07:11.833Z,6.10
2023-04-23T23:09:38.655Z,6.60
2023-04-23T23:12:05.522Z,7.60
2023-04-23T23:14:33.396Z,6.10
2023-04-23T23:17:00.289Z,6.10
2023-04-23T23:19:28.076Z,5.80
2023-04-23T23:21:55.060Z,5.80
2023-04-23T23:24:22.197Z,5.20
2023-04-23T23:26:49.741Z,5.40
2023-04-23T23:29:16.679Z,5.60
2023-04-23T23:31:44.256Z,5.10
2023-04-23T23:34:11.462Z,4.80
2023-04-23T23:36:38.362Z,5.20
2023-04-23T23:39:06.744Z,6.20
2023-04-23T23:41:33.965Z,5.90
2023-04-23T23:44:00.896Z,4.90
2023-04-23T23:46:28.194Z,4.90
2023-04-23T23:48:55.572Z,4.30
2023-04-23T23:51:22.503Z,4.00
2023-04-23T23:53:49.427Z,5.50
2023-04-23T23:56:16.293Z,4.80
2023-04-23T23:58:43.596Z,5.10
